Havre City County Airport
KHVR : now visible

Airfield :











YOU CAN JOIN US ON...

 
LOGIN :

Register | Disclaimer

   EN    FR    IT 

 









Legend :    VFR   Marginal VFR   IFR   Intensive IFR   Very Intensive IFR
Visi :
Ceiling :
>= 8 km
>= 3000ft
5 to 8 km
1000 to 3000 ft
1500m to 5 km
500 to 1000 ft
800 to 1500m
200 to 500 ft
< 800m
< 200 ft
Symbols :   Thunderstorms  Fog  Heavy snow  Heavy precipitations  Wind > 20 kt






- Airport Elevation : 2591 ft


KHVR - Havre City County

CURRENT METAR :
  • 231353Z AUTO 04012KT 10SM BKN013 07/04 A2989 RMK AO2 SLP129 T00670039

EXPIRED METARs :
  • 231326Z AUTO 04009KT 10SM BKN013 07/04 A2988 RMK AO2 T00670039
  • 231253Z AUTO 04009KT 10SM OVC060 07/04 A2987 RMK AO2 SLP122 T00670039
  • 231153Z AUTO 05011KT 10SM OVC065 07/04 A2985 RMK AO2 SLP114 70003 T00670039 10094 20067 50006
  • 231053Z AUTO 05010KT 10SM OVC065 07/04 A2985 RMK AO2 SLP112 T00720039
  • 230953Z AUTO 04009KT 10SM OVC060 08/04 A2985 RMK AO2 SLP112 T00780044

TAF KHVR
Valid from the 23 at 12:00 until the 24 at 12:00 UTC


231120Z 2312/2412 03009KT P6SM BKN040
FM231800 35009KT P6SM SCT060
FM240100 VRB04KT P6SM OVC035
PROB30 2406/2412 6SM -SHRA OVC020
KZLC FIR / North America



MET'MAP, your aeronautical weather chart ! - Copyright ORBIFLY December 2007 - Disclaimer

ORBIFLY MET'MAP TEAM :

Programming & Development : Alexandra Zaïnal
Original concept : Baudouin d'Aumeries
Technical & hardware support : Manuel Goepfert
Assistance : Marc-Olivier Méhu




SOURCES & CREDITS :

   NOAA       Earth
Advisory